Time;durP1;ratioP1;P1;durP2;ratioP2;P2;SDS_P1;SDS_P2;PMS_P1;PMS_P2;Temp;Humidity;BMP_temperature;BMP_pressure;BME280_temperature;BME280_humidity;BME280_pressure;Samples;Min_cycle;Max_cycle;Signal;HPM_P1;HPM_P2
2022/02/08 00:01:16;;;;;;;3.03;1.33;;;3.20;99.90;3.10;101363.00;;;;4970743;28;86941;-71
2022/02/08 00:03:43;;;;;;;5.43;1.40;;;3.30;99.90;3.10;101372.00;;;;4956629;28;87808;-67
2022/02/08 00:06:27;;;;;;;6.50;1.47;;;3.30;99.90;3.20;101367.00;;;;4956476;28;88226;-68
2022/02/08 00:08:53;;;;;;;1.50;0.93;;;3.80;99.90;3.20;101365.00;;;;4953262;28;88871;-67
2022/02/08 00:11:19;;;;;;;5.67;1.47;;;3.40;99.90;3.30;101374.00;;;;4955835;28;110399;-68
2022/02/08 00:13:44;;;;;;;6.47;1.27;;;3.50;99.90;3.30;101371.00;;;;4959279;28;110036;-68
2022/02/08 00:16:10;;;;;;;4.33;1.97;;;3.50;99.90;3.40;101378.00;;;;4975266;28;117577;-67
2022/02/08 00:18:36;;;;;;;2.23;0.97;;;3.50;99.90;3.40;101384.00;;;;4974762;28;117769;-69
2022/02/08 00:21:01;;;;;;;5.00;1.60;;;3.50;99.90;3.40;101379.00;;;;4973483;28;110158;-68
2022/02/08 00:23:27;;;;;;;3.97;0.93;;;3.60;99.90;3.40;101375.00;;;;4961998;28;107216;-69
2022/02/08 00:25:53;;;;;;;2.57;1.37;;;3.90;99.90;3.40;101382.00;;;;4955428;28;117015;-68
2022/02/08 00:28:19;;;;;;;3.00;1.20;;;3.50;99.90;3.30;101390.00;;;;4955440;28;114687;-68
2022/02/08 00:30:44;;;;;;;5.97;1.50;;;3.50;99.90;3.30;101399.00;;;;4957187;28;110445;-67
2022/02/08 00:33:10;;;;;;;1.73;1.37;;;3.50;99.90;3.20;101393.00;;;;4971512;28;109538;-68
2022/02/08 00:35:36;;;;;;;1.57;1.33;;;3.50;99.90;3.20;101394.00;;;;4989017;28;117282;-67
2022/02/08 00:38:02;;;;;;;4.00;1.63;;;3.40;99.90;3.20;101390.00;;;;4973054;28;110661;-66
2022/02/08 00:40:27;;;;;;;1.37;1.10;;;3.40;99.90;3.10;101399.00;;;;4991664;28;87941;-69
2022/02/08 00:42:54;;;;;;;2.67;1.20;;;3.40;99.90;3.10;101397.00;;;;4968704;28;87693;-69
2022/02/08 00:47:52;;;;;;;3.17;1.40;;;3.40;99.90;3.20;101390.00;;;;4972239;28;106428;-67
2022/02/08 00:50:17;;;;;;;3.83;1.30;;;3.30;99.90;3.10;101391.00;;;;4975494;28;86969;-68
2022/02/08 00:52:43;;;;;;;3.67;1.23;;;3.80;99.90;3.20;101405.00;;;;4975118;28;108175;-68
2022/02/08 00:55:12;;;;;;;3.80;1.63;;;3.30;99.90;3.20;101404.00;;;;4974285;28;118180;-67
2022/02/08 00:57:38;;;;;;;6.73;1.53;;;4.10;99.90;3.20;101407.00;;;;4976477;28;88893;-67
2022/02/08 01:00:07;;;;;;;7.70;1.33;;;3.40;99.90;3.10;101409.00;;;;4977326;28;110126;-70
2022/02/08 01:02:33;;;;;;;1.23;1.00;;;3.30;99.90;3.10;101412.00;;;;4976998;28;89097;-69
2022/02/08 01:05:01;;;;;;;2.17;1.00;;;3.40;99.90;3.10;101421.00;;;;4959244;28;88660;-67
2022/02/08 01:07:27;;;;;;;4.63;1.03;;;3.40;99.90;3.10;101414.00;;;;4960098;28;88887;-68
2022/02/08 01:10:00;;;;;;;5.77;1.57;;;3.80;99.90;3.10;101424.00;;;;4978489;28;88082;-67
2022/02/08 01:12:32;;;;;;;1.77;0.70;;;3.40;99.90;3.10;101418.00;;;;4959505;28;87750;-67
2022/02/08 01:14:58;;;;;;;8.47;1.20;;;3.40;99.90;3.20;101414.00;;;;4958967;28;87446;-70
2022/02/08 01:17:27;;;;;;;2.00;0.93;;;3.40;99.90;3.20;101414.00;;;;4958481;28;87619;-67
2022/02/08 01:20:09;;;;;;;1.87;1.27;;;3.60;99.90;3.20;101416.00;;;;4959130;28;87887;-69
2022/02/08 01:22:38;;;;;;;3.60;1.30;;;3.50;99.90;3.30;101419.00;;;;4971466;28;88489;-68
2022/02/08 01:25:08;;;;;;;3.87;1.37;;;4.20;99.90;3.30;101425.00;;;;4958493;28;88181;-69
2022/02/08 01:27:40;;;;;;;1.87;0.87;;;3.50;99.90;3.40;101426.00;;;;4958592;28;88983;-68
2022/02/08 01:30:14;;;;;;;4.73;1.30;;;3.50;99.90;3.40;101426.00;;;;4958724;28;87892;-69
2022/02/08 01:33:20;;;;;;;1.57;0.67;;;3.60;99.90;3.40;101424.00;;;;4960635;28;87787;-68
2022/02/08 01:35:55;;;;;;;1.93;0.83;;;3.60;99.90;3.50;101423.00;;;;4961500;28;87954;-70
2022/02/08 01:38:26;;;;;;;2.63;0.77;;;3.80;99.90;3.50;101425.00;;;;4958727;28;88035;-71
2022/02/08 01:44:02;;;;;;;4.47;1.13;;;3.70;99.90;3.50;101412.00;;;;4957158;28;87709;-69
2022/02/08 01:46:28;;;;;;;1.23;0.93;;;3.70;99.90;3.50;101422.00;;;;4957859;28;87989;-69
2022/02/08 01:49:13;;;;;;;2.13;1.00;;;3.70;99.90;3.60;101411.00;;;;4970257;28;88877;-70
2022/02/08 01:51:39;;;;;;;8.20;1.57;;;3.70;99.90;3.60;101408.00;;;;4977430;28;88101;-71
2022/02/08 01:54:05;;;;;;;2.07;1.20;;;3.80;99.90;3.60;101420.00;;;;4978768;28;87954;-68
2022/02/08 01:56:31;;;;;;;3.20;1.43;;;3.80;99.90;3.60;101417.00;;;;4991772;28;119153;-71
2022/02/08 01:58:57;;;;;;;6.53;1.50;;;3.90;99.90;3.60;101420.00;;;;4991913;28;97696;-70
2022/02/08 02:01:23;;;;;;;1.90;0.87;;;3.80;99.90;3.70;101412.00;;;;4975674;28;87844;-70
2022/02/08 02:03:49;;;;;;;6.10;1.33;;;3.80;99.90;3.70;101414.00;;;;4976830;28;96922;-69
2022/02/08 02:06:14;;;;;;;4.80;1.60;;;3.90;99.90;3.70;101413.00;;;;4991871;28;116427;-72
2022/02/08 02:08:40;;;;;;;3.77;1.53;;;3.90;99.90;3.70;101407.00;;;;4975162;28;117080;-69
2022/02/08 02:11:06;;;;;;;1.00;0.90;;;3.90;99.90;3.70;101398.00;;;;4977536;28;96854;-69
2022/02/08 02:13:47;;;;;;;8.53;1.87;;;3.90;99.90;3.70;101402.00;;;;4967470;28;88774;-69
2022/02/08 02:16:19;;;;;;;4.43;1.63;;;3.80;99.90;3.70;101391.00;;;;4957406;28;89205;-70
2022/02/08 02:18:45;;;;;;;7.60;1.10;;;3.90;99.90;3.70;101385.00;;;;4957760;28;87690;-69
2022/02/08 02:21:10;;;;;;;9.57;2.00;;;3.90;99.90;3.70;101391.00;;;;4977219;28;101335;-69
2022/02/08 02:23:36;;;;;;;2.73;1.33;;;3.90;99.90;3.80;101386.00;;;;4974562;28;92652;-69
2022/02/08 02:26:02;;;;;;;4.43;1.70;;;3.90;99.90;3.80;101393.00;;;;4977334;28;100629;-70
2022/02/08 02:28:28;;;;;;;4.93;1.43;;;3.90;99.90;3.80;101379.00;;;;4976607;28;102052;-70
2022/02/08 02:30:55;;;;;;;6.00;2.13;;;3.90;99.90;3.80;101395.00;;;;4978736;28;87255;-70
2022/02/08 02:33:21;;;;;;;3.00;1.43;;;4.00;99.90;3.80;101397.00;;;;4976900;28;106445;-71
2022/02/08 02:35:47;;;;;;;3.23;1.47;;;4.00;99.90;3.70;101396.00;;;;4956011;28;90208;-70
2022/02/08 02:38:13;;;;;;;4.90;1.87;;;3.90;99.90;3.70;101398.00;;;;4954371;28;89038;-70
2022/02/08 02:40:45;;;;;;;3.87;1.93;;;3.90;99.90;3.60;101384.00;;;;4957692;28;88104;-69
2022/02/08 02:43:11;;;;;;;7.13;1.93;;;3.90;99.90;3.60;101392.00;;;;4957601;28;87892;-69
2022/02/08 02:45:37;;;;;;;3.60;1.33;;;3.80;99.90;3.50;101385.00;;;;4957790;28;88608;-69
2022/02/08 02:48:03;;;;;;;6.20;2.03;;;3.80;99.90;3.50;101400.00;;;;4971944;28;87778;-69
2022/02/08 02:50:29;;;;;;;3.77;2.20;;;3.70;99.90;3.40;101394.00;;;;4957938;28;92198;-70
2022/02/08 02:52:55;;;;;;;4.83;1.90;;;3.70;99.90;3.40;101403.00;;;;4957441;28;95129;-69
2022/02/08 02:55:21;;;;;;;2.90;1.80;;;3.60;99.90;3.30;101403.00;;;;4957216;28;87083;-70
2022/02/08 02:57:51;;;;;;;3.97;2.17;;;3.60;99.90;3.20;101392.00;;;;4960760;28;87985;-69
2022/02/08 03:00:37;;;;;;;3.60;1.67;;;3.50;99.90;3.20;101401.00;;;;4975367;28;87972;-69
2022/02/08 03:03:31;;;;;;;3.10;1.53;;;3.40;99.90;3.10;101405.00;;;;4974235;28;88773;-70
2022/02/08 03:17:26;;;;;;;5.10;2.10;;;3.40;99.90;3.00;101421.00;;;;4988273;28;87976;-69
2022/02/08 03:19:42;;;;;;;1.50;1.27;;;3.10;99.90;2.70;101410.00;;;;4965449;28;87934;-69
2022/02/08 03:22:07;;;;;;;5.03;2.23;;;3.00;99.90;2.70;101392.00;;;;4977572;28;86992;-71
2022/02/08 03:24:33;;;;;;;7.60;2.13;;;3.00;99.90;2.70;101401.00;;;;4973248;28;107872;-69
2022/02/08 03:27:00;;;;;;;5.37;2.10;;;3.60;99.90;2.70;101394.00;;;;4976525;28;88969;-72
2022/02/08 03:29:25;;;;;;;4.07;2.17;;;2.90;99.90;2.60;101398.00;;;;4971711;28;117408;-70
2022/02/08 03:31:51;;;;;;;4.27;2.53;;;2.80;99.90;2.60;101411.00;;;;4956132;28;110246;-68
2022/02/08 03:34:17;;;;;;;3.80;2.13;;;2.80;99.90;2.60;101406.00;;;;4973315;28;108352;-70
2022/02/08 03:36:42;;;;;;;8.33;2.70;;;2.90;99.90;2.60;101407.00;;;;4976860;28;89336;-71
2022/02/08 03:39:19;;;;;;;4.53;3.33;;;2.80;99.90;2.70;101389.00;;;;4960660;28;94464;-70
2022/02/08 03:41:52;;;;;;;3.13;2.63;;;2.90;99.90;2.70;101397.00;;;;4955382;28;87888;-68
2022/02/08 03:44:21;;;;;;;3.80;2.83;;;2.90;99.90;2.70;101385.00;;;;4971778;28;87576;-69
2022/02/08 03:46:47;;;;;;;4.80;2.67;;;2.90;99.90;2.70;101378.00;;;;4957532;28;86975;-69
2022/02/08 03:49:14;;;;;;;2.90;2.20;;;3.20;99.90;2.70;101374.00;;;;4955742;28;102231;-71
2022/02/08 03:51:49;;;;;;;6.10;2.63;;;2.90;99.90;2.70;101372.00;;;;4956894;28;87713;-70
2022/02/08 03:54:19;;;;;;;6.57;2.57;;;2.90;99.90;2.80;101374.00;;;;4968959;28;88372;-69
2022/02/08 03:56:45;;;;;;;6.03;3.17;;;3.00;99.90;2.80;101376.00;;;;4971527;28;88384;-69
2022/02/08 03:59:12;;;;;;;7.43;3.63;;;2.90;99.90;2.80;101368.00;;;;4956332;28;88192;-71
2022/02/08 04:02:05;;;;;;;2.57;2.37;;;3.00;99.90;2.80;101370.00;;;;4954611;28;87965;-69
2022/02/08 04:07:09;;;;;;;6.67;2.40;;;2.90;99.90;2.80;101348.00;;;;4953393;28;88147;-69
2022/02/08 04:09:35;;;;;;;2.37;2.17;;;2.90;99.90;2.90;101361.00;;;;4956361;28;88104;-73
2022/02/08 04:12:08;;;;;;;6.53;2.50;;;3.00;99.90;2.90;101366.00;;;;4971652;28;87065;-69
2022/02/08 04:14:48;;;;;;;3.93;2.60;;;3.10;99.90;2.90;101360.00;;;;4956272;28;87696;-68
2022/02/08 04:17:40;;;;;;;5.33;2.33;;;3.10;99.90;2.90;101367.00;;;;4956202;28;87988;-70
2022/02/08 04:34:26;;;;;;;5.47;2.60;;;3.20;99.90;3.00;101388.00;;;;4927515;28;87981;-72
2022/02/08 04:37:43;;;;;;;7.40;2.87;;;3.20;99.90;3.00;101378.00;;;;4914159;28;87840;-70
2022/02/08 04:42:59;;;;;;;3.37;2.73;;;3.20;99.90;3.10;101386.00;;;;4971366;28;87750;-70
2022/02/08 04:45:39;;;;;;;2.80;2.43;;;3.20;99.90;3.10;101381.00;;;;4985708;28;87977;-69
2022/02/08 04:48:15;;;;;;;4.13;2.50;;;3.40;99.90;3.10;101372.00;;;;4955800;28;88633;-69
2022/02/08 04:50:41;;;;;;;3.90;2.40;;;3.40;99.90;3.20;101376.00;;;;4955317;28;88865;-69
2022/02/08 04:53:15;;;;;;;7.10;2.67;;;3.30;99.90;3.20;101366.00;;;;4970418;28;87982;-71
2022/02/08 04:55:51;;;;;;;5.33;2.87;;;3.40;99.90;3.20;101364.00;;;;4955635;28;87910;-70
2022/02/08 05:28:50;;;;;;;3.43;2.43;;;3.60;99.90;3.40;101323.00;;;;4954148;28;88136;-68
2022/02/08 05:36:16;;;;;;;6.70;2.70;;;3.70;99.90;3.50;101317.00;;;;4952206;28;87883;-68
2022/02/08 05:49:04;;;;;;;3.43;2.20;;;3.80;99.90;3.60;101314.00;;;;4963594;28;87592;-70
2022/02/08 05:54:21;;;;;;;7.77;2.70;;;3.80;99.90;3.60;101300.00;;;;4949683;28;88237;-69
2022/02/08 05:56:52;;;;;;;6.60;2.77;;;3.70;99.90;3.60;101308.00;;;;4958048;28;108219;-70
2022/02/08 05:59:17;;;;;;;3.97;2.60;;;3.80;99.90;3.60;101306.00;;;;4959689;28;87083;-70
2022/02/08 06:01:43;;;;;;;6.47;2.60;;;3.80;99.90;3.70;101309.00;;;;4958539;28;87720;-71
2022/02/08 06:04:10;;;;;;;4.37;2.43;;;3.80;99.90;3.70;101305.00;;;;4956088;28;117352;-68
2022/02/08 06:06:36;;;;;;;3.00;2.37;;;4.10;99.90;3.70;101305.00;;;;4968144;28;88839;-69
2022/02/08 06:09:02;;;;;;;4.57;2.57;;;3.90;99.90;3.70;101294.00;;;;4975288;28;94297;-69
2022/02/08 06:11:28;;;;;;;4.10;2.40;;;3.90;99.90;3.70;101302.00;;;;4978597;28;88018;-69
2022/02/08 06:13:54;;;;;;;3.73;2.13;;;3.90;99.90;3.80;101302.00;;;;4964947;28;87871;-69
2022/02/08 06:16:22;;;;;;;4.07;2.17;;;3.90;99.90;3.80;101298.00;;;;4958008;28;88726;-69
2022/02/08 06:18:47;;;;;;;12.00;2.80;;;3.90;99.90;3.80;101297.00;;;;4957469;28;87778;-68
2022/02/08 06:21:14;;;;;;;4.40;2.47;;;4.00;99.90;3.90;101299.00;;;;4969952;28;107774;-68
2022/02/08 06:23:40;;;;;;;5.03;2.43;;;4.00;99.90;3.90;101290.00;;;;4977047;28;117066;-68
2022/02/08 06:26:06;;;;;;;3.23;1.83;;;4.00;99.90;3.90;101297.00;;;;4977695;28;87465;-69
2022/02/08 06:28:32;;;;;;;10.73;2.93;;;4.00;99.90;4.00;101303.00;;;;4989132;28;87866;-69
2022/02/08 06:30:58;;;;;;;4.40;2.23;;;4.10;99.90;4.00;101301.00;;;;4977676;28;88753;-68
2022/02/08 06:33:24;;;;;;;3.90;2.00;;;4.10;99.90;4.00;101306.00;;;;4990874;28;117306;-69
2022/02/08 06:35:50;;;;;;;6.47;2.33;;;4.20;99.90;4.00;101304.00;;;;4973536;28;106412;-70
2022/02/08 06:38:18;;;;;;;4.10;2.40;;;4.20;99.90;4.00;101307.00;;;;4972586;28;87723;-70
2022/02/08 06:40:48;;;;;;;3.07;1.97;;;4.20;99.90;4.00;101297.00;;;;4955802;28;87723;-69
2022/02/08 06:43:15;;;;;;;3.53;2.03;;;5.20;99.90;4.00;101304.00;;;;4957026;28;88938;-69
2022/02/08 06:45:40;;;;;;;4.17;2.07;;;4.20;99.90;4.00;101297.00;;;;4957632;28;88363;-70
2022/02/08 06:48:08;;;;;;;2.23;2.03;;;4.20;99.90;4.00;101303.00;;;;4960231;28;87169;-69
2022/02/08 06:50:33;;;;;;;3.80;2.53;;;4.10;99.90;4.00;101313.00;;;;4957543;28;87813;-71
2022/02/08 06:52:59;;;;;;;5.67;2.37;;;4.20;99.90;4.00;101302.00;;;;4968084;28;117715;-70
2022/02/08 06:55:27;;;;;;;4.63;2.23;;;4.20;99.90;4.00;101301.00;;;;4975160;28;117493;-70
2022/02/08 06:58:04;;;;;;;2.20;1.93;;;4.20;99.90;3.90;101310.00;;;;4974104;28;87818;-69
2022/02/08 07:00:35;;;;;;;4.43;2.10;;;4.10;99.90;3.80;101312.00;;;;4990725;28;87817;-70
2022/02/08 07:03:07;;;;;;;1.67;1.57;;;4.00;99.90;3.70;101293.00;;;;4976403;28;89070;-69
2022/02/08 07:05:33;;;;;;;6.70;2.03;;;4.00;99.90;3.70;101316.00;;;;4989776;28;87878;-66
2022/02/08 07:07:59;;;;;;;5.27;2.50;;;3.90;99.90;3.60;101302.00;;;;4973933;28;87782;-70
2022/02/08 07:10:27;;;;;;;4.13;2.60;;;3.80;99.90;3.50;101301.00;;;;4957133;28;87672;-72
2022/02/08 07:12:53;;;;;;;8.00;2.03;;;3.70;99.90;3.50;101299.00;;;;4961810;28;87222;-73
2022/02/08 07:15:20;;;;;;;6.13;1.97;;;3.80;99.90;3.40;101302.00;;;;4974164;28;87872;-73
2022/02/08 07:17:46;;;;;;;4.83;2.63;;;3.70;99.90;3.40;101306.00;;;;4970399;28;87527;-71
2022/02/08 07:20:12;;;;;;;6.70;2.53;;;3.70;99.90;3.40;101305.00;;;;4956572;28;89130;-73
2022/02/08 07:22:38;;;;;;;13.37;2.20;;;3.60;99.90;3.40;101307.00;;;;4960466;28;88076;-72
2022/02/08 07:25:05;;;;;;;6.70;2.50;;;3.50;99.90;3.40;101309.00;;;;4976089;28;88951;-74
2022/02/08 07:27:31;;;;;;;4.73;2.20;;;3.60;99.90;3.40;101314.00;;;;4976360;28;87848;-78
2022/02/08 07:29:58;;;;;;;5.07;2.43;;;3.60;99.90;3.40;101312.00;;;;4990598;28;93044;-74
2022/02/08 07:32:35;;;;;;;3.80;2.33;;;3.60;99.90;3.40;101315.00;;;;4989682;28;88182;-80
2022/02/08 07:35:23;;;;;;;10.03;2.43;;;3.50;99.90;3.40;101328.00;;;;4970181;28;89802;-79
2022/02/08 07:37:57;;;;;;;5.47;2.17;;;3.60;99.90;3.50;101322.00;;;;4969410;28;88203;-77
2022/02/08 07:40:29;;;;;;;5.87;1.50;;;3.60;99.90;3.50;101324.00;;;;4970602;28;87797;-81
2022/02/08 07:42:55;;;;;;;3.13;2.30;;;3.70;99.90;3.50;101319.00;;;;4973823;28;88714;-76
2022/02/08 07:45:22;;;;;;;2.80;2.07;;;3.70;99.90;3.50;101318.00;;;;4972520;28;90012;-78
2022/02/08 07:47:48;;;;;;;4.30;2.07;;;4.50;99.90;3.50;101308.00;;;;4973151;28;88122;-76
2022/02/08 07:50:14;;;;;;;7.43;2.40;;;3.60;99.90;3.60;101314.00;;;;4972961;28;99984;-75
2022/02/08 07:52:40;;;;;;;9.00;2.93;;;3.70;99.90;3.60;101313.00;;;;4972941;28;89017;-75
2022/02/08 07:55:06;;;;;;;4.27;1.80;;;3.70;99.90;3.60;101300.00;;;;4975074;28;88107;-78
2022/02/08 07:57:32;;;;;;;4.40;1.97;;;3.80;99.90;3.60;101306.00;;;;4972596;28;95684;-75
2022/02/08 07:59:58;;;;;;;3.07;1.77;;;3.80;99.90;3.60;101306.00;;;;4975219;28;108779;-76
2022/02/08 08:02:24;;;;;;;9.50;2.10;;;3.80;99.90;3.60;101297.00;;;;4988330;28;116768;-74
2022/02/08 08:04:49;;;;;;;6.03;2.03;;;3.90;99.90;3.70;101300.00;;;;4973551;28;117107;-74
2022/02/08 08:07:15;;;;;;;5.60;2.37;;;3.90;99.90;3.70;101306.00;;;;4988324;27;109137;-73
2022/02/08 08:09:42;;;;;;;9.20;1.97;;;3.90;99.90;3.80;101306.00;;;;4954232;28;107530;-74
2022/02/08 08:12:12;;;;;;;2.23;1.37;;;3.80;99.90;3.80;101289.00;;;;4955213;28;89181;-72
2022/02/08 08:14:38;;;;;;;4.80;1.93;;;4.00;99.90;3.80;101294.00;;;;4968837;28;87869;-71
2022/02/08 08:19:50;;;;;;;5.10;2.40;;;4.00;99.90;3.90;101298.00;;;;4974393;28;87667;-71
2022/02/08 08:22:19;;;;;;;3.10;1.63;;;4.10;99.90;3.90;101301.00;;;;4959236;28;88169;-72
2022/02/08 08:24:46;;;;;;;2.97;1.60;;;4.10;99.90;4.00;101296.00;;;;4955902;28;88183;-71
2022/02/08 08:27:13;;;;;;;3.03;1.40;;;4.20;99.90;4.00;101289.00;;;;4956539;28;87260;-71
2022/02/08 08:29:42;;;;;;;3.80;1.50;;;4.10;99.90;4.00;101279.00;;;;4976451;28;87736;-70
2022/02/08 08:32:08;;;;;;;4.87;1.70;;;4.20;99.90;4.10;101279.00;;;;4975720;28;100112;-71
2022/02/08 08:34:36;;;;;;;3.03;1.40;;;4.20;99.90;4.20;101282.00;;;;4974558;28;88721;-72
2022/02/08 08:37:04;;;;;;;2.67;1.40;;;4.30;99.90;4.20;101276.00;;;;4975985;28;92572;-70
2022/02/08 08:39:44;;;;;;;5.00;2.17;;;4.30;99.90;4.20;101281.00;;;;4975952;28;88299;-70
2022/02/08 08:42:26;;;;;;;3.87;1.37;;;4.30;99.90;4.20;101282.00;;;;4956694;28;89189;-72
2022/02/08 08:45:18;;;;;;;4.10;1.57;;;4.70;99.90;4.20;101283.00;;;;4956128;28;87812;-71
2022/02/08 08:50:52;;;;;;;2.47;1.37;;;4.40;99.90;4.30;101281.00;;;;4969894;28;87751;-70
2022/02/08 08:53:17;;;;;;;2.03;1.10;;;4.50;99.90;4.30;101287.00;;;;4956124;28;87698;-69
2022/02/08 08:55:43;;;;;;;1.67;1.10;;;4.50;99.90;4.40;101292.00;;;;4956015;28;87836;-69
2022/02/08 08:58:09;;;;;;;3.47;1.47;;;4.50;99.90;4.40;101292.00;;;;4955361;28;99035;-70
2022/02/08 09:00:34;;;;;;;4.60;2.10;;;4.50;99.90;4.40;101284.00;;;;4954206;28;109352;-71
2022/02/08 09:03:00;;;;;;;4.57;1.53;;;4.60;99.90;4.50;101287.00;;;;4954664;28;116159;-71
2022/02/08 09:05:26;;;;;;;5.00;1.67;;;4.60;99.90;4.50;101276.00;;;;4954542;28;117505;-70
2022/02/08 09:07:52;;;;;;;1.43;1.13;;;4.80;99.90;4.50;101259.00;;;;4955404;28;87591;-70
2022/02/08 09:10:23;;;;;;;2.80;1.43;;;4.60;99.90;4.50;101259.00;;;;4966169;28;87830;-71
2022/02/08 09:21:18;;;;;;;1.57;1.40;;;4.80;99.90;4.70;101251.00;;;;4956140;28;87933;-68
2022/02/08 09:28:55;;;;;;;3.53;1.40;;;5.00;99.90;4.90;101256.00;;;;4957711;28;88046;-69
2022/02/08 09:31:21;;;;;;;2.80;1.40;;;5.30;99.90;4.90;101237.00;;;;4958822;28;87987;-68
2022/02/08 09:33:50;;;;;;;2.43;1.77;;;5.10;99.90;4.90;101257.00;;;;4958759;28;88286;-69
2022/02/08 09:36:20;;;;;;;2.57;1.80;;;5.10;99.90;4.90;101261.00;;;;4958672;28;117375;-69
2022/02/08 09:38:45;;;;;;;2.70;1.73;;;5.10;99.90;4.90;101256.00;;;;4958500;28;87941;-70
2022/02/08 09:41:11;;;;;;;4.00;1.70;;;5.00;99.90;4.90;101253.00;;;;4977343;28;102410;-70
2022/02/08 09:43:39;;;;;;;3.50;1.63;;;5.10;99.90;4.90;101240.00;;;;4991605;28;89400;-69
2022/02/08 09:46:07;;;;;;;3.70;1.53;;;5.10;99.90;4.90;101245.00;;;;4977681;28;87592;-70
2022/02/08 09:48:52;;;;;;;4.50;1.33;;;5.00;99.90;4.90;101256.00;;;;4978407;28;87618;-71
2022/02/08 09:51:18;;;;;;;4.97;1.90;;;5.10;99.90;4.90;101244.00;;;;4975504;28;88672;-71
2022/02/08 09:53:45;;;;;;;2.40;1.53;;;5.00;99.90;4.90;101254.00;;;;4966078;28;88278;-70
2022/02/08 09:56:13;;;;;;;5.43;1.50;;;5.10;99.90;5.00;101258.00;;;;4958568;28;87976;-68
2022/02/08 09:58:39;;;;;;;2.37;1.23;;;5.10;99.90;5.00;101252.00;;;;4973413;28;87831;-69
2022/02/08 10:01:12;;;;;;;2.43;1.33;;;5.20;99.90;5.10;101265.00;;;;4958653;28;88056;-68
2022/02/08 10:03:57;;;;;;;3.20;1.80;;;5.20;99.90;5.10;101262.00;;;;4958668;28;88502;-69
2022/02/08 10:06:28;;;;;;;1.47;1.17;;;5.30;99.90;5.20;101262.00;;;;4955565;28;89368;-70
2022/02/08 10:09:05;;;;;;;2.20;1.70;;;5.30;99.90;5.20;101263.00;;;;4972767;28;87782;-68
2022/02/08 10:11:49;;;;;;;4.83;1.90;;;5.40;99.90;5.30;101258.00;;;;4978458;28;87811;-68
2022/02/08 10:14:20;;;;;;;3.20;1.53;;;5.40;99.90;5.40;101246.00;;;;4977467;28;88079;-67
2022/02/08 10:22:47;;;;;;;2.43;1.53;;;5.60;99.90;5.60;101236.00;;;;4961333;28;87766;-68
2022/02/08 10:25:59;;;;;;;7.33;1.47;;;5.70;99.90;5.60;101243.00;;;;4978541;28;88892;-68
2022/02/08 10:28:28;;;;;;;3.03;1.70;;;5.80;99.90;5.70;101234.00;;;;4974449;28;87736;-69
2022/02/08 10:31:34;;;;;;;4.37;1.33;;;5.80;99.90;5.80;101231.00;;;;4989339;27;87847;-68
2022/02/08 10:39:19;;;;;;;4.83;1.00;;;6.00;99.90;6.00;101223.00;;;;4956614;28;87855;-69
2022/02/08 10:41:48;;;;;;;1.00;0.70;;;6.10;99.90;6.10;101221.00;;;;4958576;28;88015;-68
2022/02/08 10:44:14;;;;;;;3.20;1.17;;;6.10;99.90;6.20;101214.00;;;;4957536;28;89027;-68
2022/02/08 10:46:40;;;;;;;2.77;1.33;;;6.30;99.90;6.20;101224.00;;;;4956882;28;117015;-68
2022/02/08 10:49:15;;;;;;;0.90;0.83;;;6.30;99.90;6.30;101232.00;;;;4957627;28;117267;-68
2022/02/08 10:51:51;;;;;;;1.43;1.10;;;6.40;99.90;6.30;101229.00;;;;4956966;28;110451;-68
2022/02/08 10:54:26;;;;;;;2.60;1.20;;;6.50;99.90;6.40;101216.00;;;;4957377;28;87588;-67
2022/02/08 10:56:59;;;;;;;2.67;0.97;;;6.50;99.90;6.50;101226.00;;;;4957514;28;87621;-68
2022/02/08 10:59:33;;;;;;;5.43;1.30;;;6.60;99.90;6.60;101225.00;;;;4975334;28;87754;-68
2022/02/08 11:02:17;;;;;;;0.60;0.60;;;6.70;99.90;6.60;101221.00;;;;4991900;28;86814;-68
2022/02/08 11:04:52;;;;;;;4.93;1.07;;;6.70;99.90;6.70;101214.00;;;;4968843;28;87859;-68
2022/02/08 11:07:58;;;;;;;1.13;0.80;;;6.80;99.90;6.80;101218.00;;;;4957135;28;88916;-68
2022/02/08 11:15:57;;;;;;;6.67;1.43;;;7.00;99.90;7.00;101235.00;;;;4972668;28;87729;-67
2022/02/08 11:18:34;;;;;;;3.23;0.83;;;7.10;99.90;7.00;101226.00;;;;4967888;28;87941;-69
2022/02/08 11:26:39;;;;;;;1.90;0.93;;;7.20;99.90;7.10;101242.00;;;;4973765;28;91481;-68
2022/02/08 11:29:32;;;;;;;4.80;1.00;;;7.20;99.90;7.10;101232.00;;;;4990958;28;87372;-67
2022/02/08 11:32:08;;;;;;;3.07;1.10;;;7.20;99.90;7.20;101241.00;;;;4976823;28;87815;-69
2022/02/08 11:40:42;;;;;;;1.90;0.90;;;7.30;99.90;7.30;101231.00;;;;4969423;28;87849;-69
2022/02/08 11:43:30;;;;;;;1.30;0.83;;;7.30;99.90;7.30;101236.00;;;;4975842;28;87712;-71
2022/02/08 11:46:00;;;;;;;5.00;1.40;;;7.30;99.90;7.20;101249.00;;;;4976922;28;88086;-72
2022/02/08 11:51:40;;;;;;;2.07;1.03;;;7.70;99.90;7.20;101230.00;;;;4985940;28;87897;-70
2022/02/08 11:59:35;;;;;;;7.10;1.27;;;7.30;99.90;7.20;101218.00;;;;4955702;28;88125;-70
2022/02/08 12:02:36;;;;;;;1.60;0.90;;;7.30;99.90;7.20;101229.00;;;;4968162;28;87953;-69
2022/02/08 12:07:52;;;;;;;2.93;1.17;;;8.00;99.90;7.30;101223.00;;;;4956769;28;88028;-70
2022/02/08 12:13:48;;;;;;;2.23;1.07;;;7.40;99.90;7.40;101219.00;;;;4958753;28;87975;-71
2022/02/08 12:55:11;;;;;;;0.83;0.60;;;7.90;99.90;7.90;101165.00;;;;4956807;28;87790;-70
2022/02/08 12:57:51;;;;;;;1.07;0.70;;;7.90;99.90;7.90;101152.00;;;;4959702;28;87842;-70
2022/02/08 13:00:28;;;;;;;0.67;0.60;;;7.90;99.90;7.90;101171.00;;;;4958804;28;88546;-70
2022/02/08 13:03:26;;;;;;;2.87;1.03;;;7.90;99.90;7.90;101169.00;;;;4959231;28;87784;-69
2022/02/08 13:06:24;;;;;;;1.03;0.80;;;8.00;99.90;7.90;101173.00;;;;4959186;28;87982;-71
2022/02/08 13:18:51;;;;;;;1.87;1.10;;;8.00;99.90;7.80;101178.00;;;;4894796;28;100357;-70
2022/02/08 14:07:05;;;;;;;1.20;0.80;;;8.00;99.90;7.90;101187.00;;;;4954958;28;87881;-71
2022/02/08 14:15:22;;;;;;;3.10;1.47;;;8.00;99.90;7.90;101175.00;;;;4965040;28;87360;-70
2022/02/08 14:22:56;;;;;;;2.00;0.97;;;8.00;99.90;7.90;101170.00;;;;4988333;28;88867;-70
2022/02/08 14:30:51;;;;;;;3.00;0.60;;;8.00;99.90;8.00;101178.00;;;;4967456;28;87758;-70
2022/02/08 15:08:15;;;;;;;1.43;0.77;;;8.30;99.90;8.30;101167.00;;;;4966578;28;87274;-70
2022/02/08 15:10:50;;;;;;;2.03;0.90;;;8.40;99.90;8.30;101164.00;;;;4958025;28;87533;-71
2022/02/08 15:13:17;;;;;;;4.63;0.60;;;8.40;99.90;8.40;101171.00;;;;4957713;28;87900;-72
2022/02/08 15:18:09;;;;;;;0.50;0.50;;;8.40;99.90;8.40;101165.00;;;;4961586;28;88083;-71
2022/02/08 15:20:35;;;;;;;0.80;0.60;;;8.50;99.90;8.40;101175.00;;;;4975189;28;117792;-70
2022/02/08 15:23:03;;;;;;;0.87;0.63;;;8.50;99.90;8.40;101176.00;;;;4983961;28;87950;-70
2022/02/08 15:25:30;;;;;;;0.83;0.80;;;8.50;99.90;8.40;101168.00;;;;4955127;28;88090;-73
2022/02/08 15:28:02;;;;;;;1.97;1.23;;;8.40;99.90;8.40;101166.00;;;;4972679;28;87723;-71
2022/02/08 15:30:30;;;;;;;1.50;0.90;;;8.50;99.90;8.30;101181.00;;;;4975063;28;88735;-71
2022/02/08 15:32:57;;;;;;;1.43;0.67;;;8.40;99.90;8.30;101172.00;;;;4970169;28;87273;-69
2022/02/08 15:35:23;;;;;;;1.73;0.90;;;8.40;99.90;8.30;101169.00;;;;4954779;28;87688;-71
2022/02/08 15:37:50;;;;;;;1.37;0.93;;;8.40;99.90;8.30;101190.00;;;;4953673;28;117597;-70
2022/02/08 15:40:19;;;;;;;1.50;1.17;;;8.40;99.90;8.30;101180.00;;;;4965635;28;88978;-71
2022/02/08 15:42:48;;;;;;;0.77;0.57;;;8.30;99.90;8.20;101189.00;;;;4970950;28;87743;-71
2022/02/08 15:45:23;;;;;;;1.40;1.07;;;8.40;99.90;8.20;101185.00;;;;4954677;28;87719;-69
2022/02/08 15:47:50;;;;;;;0.87;0.77;;;8.30;99.90;8.20;101195.00;;;;4967810;28;88097;-69
2022/02/08 15:50:26;;;;;;;1.27;0.80;;;8.30;99.90;8.20;101181.00;;;;4970325;28;87675;-71
2022/02/08 15:55:34;;;;;;;1.80;1.03;;;8.30;99.90;8.20;101194.00;;;;4971730;28;98563;-70
2022/02/08 16:08:56;;;;;;;2.47;0.57;;;8.20;99.90;8.10;101200.00;;;;4984004;28;87770;-69
2022/02/08 16:11:44;;;;;;;1.30;1.10;;;8.20;99.90;8.10;101198.00;;;;4971932;28;87835;-69
2022/02/08 16:14:31;;;;;;;2.77;1.27;;;8.20;99.90;8.10;101201.00;;;;4974093;28;87802;-69
2022/02/08 16:17:15;;;;;;;1.90;0.77;;;8.20;99.90;8.10;101196.00;;;;4974186;28;87564;-72
2022/02/08 16:20:08;;;;;;;0.90;0.67;;;8.10;99.90;8.00;101202.00;;;;4974258;28;88024;-68
2022/02/08 16:25:24;;;;;;;2.20;0.90;;;8.10;99.90;8.00;101212.00;;;;4985589;28;87437;-70
2022/02/08 16:28:02;;;;;;;2.53;0.93;;;8.10;99.90;8.00;101225.00;;;;4973732;28;87960;-69